^^
Saratoga-Weather Station Historical Data
Daily Summary for January 11, 2022 Units:  Metric    English   Both
Daily Weekly Monthly Yearly Custom
  High: Low: Average:
Temperature: 0.5 °C -1.9 °C -0.6 °C
Dew Point: -0.2 °C -2.5 °C -1.2 °C
Humidity: 97% 95% 96%
Wind Speed: 8km/h 0km/h 0.8km/h
Wind Gust: 8km/h - -
Wind- - SSE
Pressure: 1035.9 hPa 1030.1 hPa -
Precipitation: 0.0 mm    
Historical Graphs
 
 
Tabular Data for January 11, 2022
Time Temperature Dew Point Pressure Wind Wind Speed Wind Gust Humidity Rainfall Rate (Hourly) solar
00:03 0.3 °C -0.3 °C 1030.1 hPa Calm   3.2 km/h 96% 0.0 mm 0 W/m2
00:08 0.3 °C -0.3 °C 1030.1 hPa Calm   1.6 km/h 96% 0.0 mm 0 W/m2
00:13 0.3 °C -0.3 °C 1030.1 hPa ENE 1.4 km/h 1.6 km/h 96% 0.0 mm 0 W/m2
00:18 0.3 °C -0.3 °C 1030.1 hPa ENE 1.4 km/h 3.2 km/h 96% 0.0 mm 0 W/m2
00:23 0.3 °C -0.3 °C 1030.1 hPa ENE 1.4 km/h 3.2 km/h 96% 0.0 mm 0 W/m2
00:28 0.3 °C -0.3 °C 1030.1 hPa Calm     96% 0.0 mm 0 W/m2
00:33 0.3 °C -0.3 °C 1030.1 hPa Calm   1.6 km/h 96% 0.0 mm 0 W/m2
00:38 0.3 °C -0.3 °C 1030.1 hPa Calm   1.6 km/h 96% 0.0 mm 0 W/m2
00:43 0.3 °C -0.3 °C 1030.1 hPa Calm     96% 0.0 mm 0 W/m2
00:49 0.3 °C -0.3 °C 1030.1 hPa North 1.4 km/h 3.2 km/h 96% 0.0 mm 0 W/m2
00:54 0.3 °C -0.3 °C 1030.1 hPa NE 1.4 km/h 1.6 km/h 96% 0.0 mm 0 W/m2
00:59 0.2 °C -0.4 °C 1030.1 hPa Calm   3.2 km/h 96% 0.0 mm 0 W/m2
01:04 0.2 °C -0.4 °C 1030.1 hPa Calm   1.6 km/h 96% 0.0 mm 0 W/m2
01:09 0.2 °C -0.4 °C 1030.1 hPa NE 1.4 km/h 3.2 km/h 96% 0.0 mm 0 W/m2
01:14 0.2 °C -0.4 °C 1030.1 hPa Calm     96% 0.0 mm 0 W/m2
01:19 0.2 °C -0.4 °C 1030.1 hPa NNE 1.4 km/h 3.2 km/h 96% 0.0 mm 0 W/m2
01:24 0.1 °C -0.5 °C 1030.1 hPa Calm   3.2 km/h 96% 0.0 mm 0 W/m2
01:29 0.1 °C -0.5 °C 1030.1 hPa NE 1.4 km/h 1.6 km/h 96% 0.0 mm 0 W/m2
01:34 0.1 °C -0.5 °C 1030.1 hPa Calm     96% 0.0 mm 0 W/m2
01:39 0.1 °C -0.5 °C 1030.1 hPa ENE 1.4 km/h 3.2 km/h 96% 0.0 mm 0 W/m2
01:44 0 °C -0.6 °C 1030.1 hPa Calm     96% 0.0 mm 0 W/m2
01:49 0 °C -0.6 °C 1030.1 hPa NNW 1.4 km/h 4.8 km/h 96% 0.0 mm 0 W/m2
01:54 -0.1 °C -0.7 °C 1030.1 hPa Calm   3.2 km/h 96% 0.0 mm 0 W/m2
01:59 -0.1 °C -0.7 °C 1030.1 hPa North 1.4 km/h 1.6 km/h 96% 0.0 mm 0 W/m2
02:04 -0.1 °C -0.7 °C 1030.1 hPa Calm   1.6 km/h 96% 0.0 mm 0 W/m2
02:09 -0.1 °C -0.7 °C 1030.1 hPa Calm   3.2 km/h 96% 0.0 mm 0 W/m2
02:14 0 °C -0.6 °C 1030.5 hPa NE 1.4 km/h 3.2 km/h 96% 0.0 mm 0 W/m2
02:19 0 °C -0.6 °C 1030.5 hPa Calm   3.2 km/h 96% 0.0 mm 0 W/m2
02:24 0 °C -0.6 °C 1030.5 hPa ESE 4.7 km/h 4.8 km/h 96% 0.0 mm 0 W/m2
02:29 -0.1 °C -0.7 °C 1030.5 hPa ESE 1.4 km/h 1.6 km/h 96% 0.0 mm 0 W/m2
02:34 -0.1 °C -0.7 °C 1030.5 hPa NE 1.4 km/h 4.8 km/h 96% 0.0 mm 0 W/m2
02:39 -0.1 °C -0.7 °C 1030.5 hPa Calm   1.6 km/h 96% 0.0 mm 0 W/m2
02:44 -0.1 °C -0.7 °C 1030.5 hPa Calm   3.2 km/h 96% 0.0 mm 0 W/m2
02:49 -0.1 °C -0.7 °C 1030.5 hPa Calm   4.8 km/h 96% 0.0 mm 0 W/m2
02:54 -0.1 °C -0.7 °C 1030.5 hPa Calm   1.6 km/h 96% 0.0 mm 0 W/m2
02:59 -0.1 °C -0.7 °C 1030.8 hPa NE 1.4 km/h 1.6 km/h 96% 0.0 mm 0 W/m2
03:04 -0.2 °C -0.8 °C 1030.8 hPa NE 7.9 km/h 8 km/h 96% 0.0 mm 0 W/m2
03:09 -0.2 °C -0.8 °C 1030.8 hPa Calm   4.8 km/h 96% 0.0 mm 0 W/m2
03:14 -0.3 °C -0.9 °C 1030.8 hPa NE 8 km/h 8 km/h 96% 0.0 mm 0 W/m2
03:19 -0.3 °C -0.9 °C 1030.8 hPa Calm   3.2 km/h 96% 0.0 mm 0 W/m2
03:24 -0.3 °C -0.9 °C 1030.8 hPa Calm   1.6 km/h 96% 0.0 mm 0 W/m2
03:29 -0.3 °C -0.9 °C 1030.8 hPa ENE 1.4 km/h 3.2 km/h 96% 0.0 mm 0 W/m2
03:34 -0.3 °C -0.9 °C 1030.8 hPa Calm   1.6 km/h 96% 0.0 mm 0 W/m2
03:39 -0.3 °C -0.9 °C 1031.2 hPa Calm   6.4 km/h 96% 0.0 mm 0 W/m2
03:44 -0.4 °C -1 °C 1031.2 hPa Calm   3.2 km/h 96% 0.0 mm 0 W/m2
03:49 -0.4 °C -1 °C 1031.2 hPa Calm     96% 0.0 mm 0 W/m2
03:54 -0.4 °C -1 °C 1031.2 hPa Calm   1.6 km/h 96% 0.0 mm 0 W/m2
03:59 -0.4 °C -1 °C 1031.2 hPa Calm   1.6 km/h 96% 0.0 mm 0 W/m2
04:04 -0.4 °C -1 °C 1031.2 hPa Calm     96% 0.0 mm 0 W/m2
04:09 -0.4 °C -1 °C 1031.2 hPa Calm     96% 0.0 mm 0 W/m2
04:14 -0.4 °C -1 °C 1031.2 hPa NE 1.4 km/h 4.8 km/h 96% 0.0 mm 0 W/m2
04:19 -0.4 °C -1 °C 1031.2 hPa Calm   1.6 km/h 96% 0.0 mm 0 W/m2
04:24 -0.4 °C -1 °C 1031.2 hPa Calm     96% 0.0 mm 0 W/m2
04:29 -0.4 °C -1 °C 1031.2 hPa Calm   3.2 km/h 96% 0.0 mm 0 W/m2
04:34 -0.4 °C -1 °C 1031.2 hPa Calm   4.8 km/h 96% 0.0 mm 0 W/m2
04:39 -0.4 °C -1 °C 1031.2 hPa Calm   1.6 km/h 96% 0.0 mm 0 W/m2
04:44 -0.4 °C -1 °C 1031.5 hPa NE 1.4 km/h 4.8 km/h 96% 0.0 mm 0 W/m2
04:49 -0.5 °C -1.1 °C 1031.5 hPa Calm     96% 0.0 mm 0 W/m2
04:54 -0.6 °C -1.2 °C 1031.5 hPa Calm   1.6 km/h 96% 0.0 mm 0 W/m2
04:59 -0.5 °C -1.1 °C 1031.5 hPa Calm   1.6 km/h 96% 0.0 mm 0 W/m2
05:04 -0.6 °C -1.2 °C 1031.2 hPa Calm   1.6 km/h 96% 0.0 mm 0 W/m2
05:09 -0.6 °C -1.2 °C 1031.5 hPa East 3.2 km/h 3.2 km/h 96% 0.0 mm 0 W/m2
05:14 -0.7 °C -1.3 °C 1031.2 hPa ESE 6.4 km/h 6.4 km/h 96% 0.0 mm 0 W/m2
05:19 -0.7 °C -1.3 °C 1031.2 hPa East 1.4 km/h 3.2 km/h 96% 0.0 mm 0 W/m2
05:24 -0.7 °C -1.3 °C 1031.2 hPa Calm   4.8 km/h 96% 0.0 mm 0 W/m2
05:29 -0.8 °C -1.4 °C 1031.2 hPa Calm   1.6 km/h 96% 0.0 mm 0 W/m2
05:34 -0.8 °C -1.4 °C 1031.2 hPa East 1.4 km/h 4.8 km/h 96% 0.0 mm 0 W/m2
05:39 -0.8 °C -1.4 °C 1031.2 hPa East 1.4 km/h 1.6 km/h 96% 0.0 mm 0 W/m2
05:44 -0.8 °C -1.4 °C 1031.2 hPa NE 1.4 km/h 4.8 km/h 96% 0.0 mm 0 W/m2
05:49 -0.8 °C -1.4 °C 1031.5 hPa NNE 3.2 km/h 3.2 km/h 96% 0.0 mm 0 W/m2
05:54 -0.8 °C -1.4 °C 1031.5 hPa NW 1.4 km/h 4.8 km/h 96% 0.0 mm 0 W/m2
05:59 -0.9 °C -1.5 °C 1031.5 hPa NNE 1.4 km/h 1.6 km/h 96% 0.0 mm 0 W/m2
06:04 -0.9 °C -1.5 °C 1031.5 hPa Calm   1.6 km/h 96% 0.0 mm 0 W/m2
06:09 -0.9 °C -1.5 °C 1031.5 hPa Calm   3.2 km/h 96% 0.0 mm 0 W/m2
06:14 -1 °C -1.6 °C 1031.5 hPa East 1.4 km/h 3.2 km/h 96% 0.0 mm 0 W/m2
06:19 -0.9 °C -1.5 °C 1031.8 hPa Calm   3.2 km/h 96% 0.0 mm 0 W/m2
06:24 -1 °C -1.6 °C 1031.8 hPa Calm     96% 0.0 mm 0 W/m2
06:29 -0.9 °C -1.5 °C 1031.8 hPa ENE 1.4 km/h 3.2 km/h 96% 0.0 mm 0 W/m2
06:34 -0.9 °C -1.5 °C 1031.8 hPa Calm     96% 0.0 mm 0 W/m2
06:39 -0.9 °C -1.5 °C 1031.8 hPa Calm   3.2 km/h 96% 0.0 mm 0 W/m2
06:44 -0.9 °C -1.5 °C 1031.8 hPa ENE 1.4 km/h 4.8 km/h 96% 0.0 mm 0 W/m2
06:49 -1.1 °C -1.7 °C 1031.8 hPa Calm     96% 0.0 mm 0 W/m2
06:54 -1.1 °C -1.7 °C 1031.8 hPa ENE 1.4 km/h 3.2 km/h 96% 0.0 mm 0 W/m2
06:59 -1.2 °C -1.8 °C 1031.8 hPa Calm     96% 0.0 mm 0 W/m2
07:04 -1.2 °C -1.8 °C 1031.8 hPa Calm   1.6 km/h 96% 0.0 mm 0 W/m2
07:09 -1.2 °C -1.8 °C 1031.8 hPa NNE 3.2 km/h 3.2 km/h 96% 0.0 mm 0 W/m2
07:14 -1.2 °C -1.8 °C 1031.8 hPa Calm   1.6 km/h 96% 0.0 mm 0 W/m2
07:19 -1.1 °C -1.7 °C 1032.2 hPa NE 3.2 km/h 3.2 km/h 96% 0.0 mm 0 W/m2
07:24 -1.1 °C -1.7 °C 1032.2 hPa ENE 3.2 km/h 3.2 km/h 96% 0.0 mm 0 W/m2
07:29 -1.2 °C -1.8 °C 1032.2 hPa Calm   3.2 km/h 96% 0.0 mm 0 W/m2
07:34 -1.2 °C -1.8 °C 1032.2 hPa Calm   4.8 km/h 96% 0.0 mm 0 W/m2
07:39 -1.2 °C -1.8 °C 1032.2 hPa East 1.4 km/h 1.6 km/h 96% 0.0 mm 0 W/m2
07:44 -1.2 °C -1.8 °C 1032.2 hPa ENE 1.4 km/h 4.8 km/h 96% 0.0 mm 0 W/m2
07:49 -1.2 °C -1.8 °C 1032.2 hPa Calm     96% 0.0 mm 0 W/m2
07:54 -1.3 °C -1.9 °C 1032.5 hPa Calm   4.8 km/h 96% 0.0 mm 0 W/m2
07:59 -1.3 °C -1.9 °C 1032.2 hPa Calm   3.2 km/h 96% 0.0 mm 0 W/m2
08:04 -1.3 °C -1.9 °C 1032.5 hPa Calm   3.2 km/h 96% 0.0 mm 0 W/m2
08:09 -1.3 °C -1.9 °C 1032.5 hPa Calm   1.6 km/h 96% 0.0 mm 0 W/m2
08:15 -1.3 °C -1.9 °C 1032.5 hPa ENE 1.4 km/h 3.2 km/h 96% 0.0 mm 0 W/m2
08:20 -1.3 °C -1.9 °C 1032.5 hPa ENE 1.4 km/h 3.2 km/h 96% 0.0 mm 0 W/m2
08:25 -1.3 °C -1.9 °C 1032.8 hPa NE 1.4 km/h 1.6 km/h 96% 0.0 mm 0 W/m2
08:30 -1.4 °C -2 °C 1032.8 hPa NE 3.2 km/h 3.2 km/h 96% 0.0 mm 0 W/m2
08:35 -1.4 °C -2 °C 1032.8 hPa NE 1.4 km/h 3.2 km/h 96% 0.0 mm 0 W/m2
08:40 -1.4 °C -2 °C 1032.8 hPa Calm   1.6 km/h 96% 0.0 mm 0 W/m2
08:45 -1.4 °C -2 °C 1032.8 hPa Calm   3.2 km/h 96% 0.0 mm 5 W/m2
08:50 -1.4 °C -2 °C 1032.8 hPa NE 1.4 km/h 3.2 km/h 96% 0.0 mm 7 W/m2
08:55 -1.4 °C -2 °C 1033.2 hPa Calm   3.2 km/h 96% 0.0 mm 7 W/m2
09:00 -1.4 °C -2 °C 1033.2 hPa Calm   3.2 km/h 96% 0.0 mm 7 W/m2
09:05 -1.4 °C -2 °C 1033.2 hPa NW 1.4 km/h 1.6 km/h 96% 0.0 mm 9 W/m2
09:10 -1.5 °C -2.1 °C 1033.2 hPa Calm   1.6 km/h 96% 0.0 mm 12 W/m2
09:15 -1.5 °C -2.1 °C 1033.2 hPa NW 1.4 km/h 1.6 km/h 96% 0.0 mm 16 W/m2
09:20 -1.6 °C -2.2 °C 1033.2 hPa Calm     96% 0.0 mm 19 W/m2
09:30 -1.5 °C -1.9 °C 1033.2 hPa NNW 1.4 km/h 3.2 km/h 97% 0.0 mm 16 W/m2
09:35 -1.5 °C -1.9 °C 1033.2 hPa Calm   1.6 km/h 97% 0.0 mm 21 W/m2
09:40 -1.5 °C -2.1 °C 1033.2 hPa Calm     96% 0.0 mm 25 W/m2
09:45 -1.5 °C -2.1 °C 1033.2 hPa Calm     96% 0.0 mm 23 W/m2
09:50 -1.4 °C -2 °C 1033.5 hPa North 1.4 km/h 1.6 km/h 96% 0.0 mm 33 W/m2
09:55 -1.4 °C -2 °C 1033.5 hPa Calm   4.8 km/h 96% 0.0 mm 28 W/m2
10:00 -1.4 °C -2 °C 1033.5 hPa Calm     96% 0.0 mm 30 W/m2
10:05 -1.4 °C -2 °C 1033.5 hPa Calm   3.2 km/h 96% 0.0 mm 32 W/m2
10:10 -1.4 °C -2 °C 1033.5 hPa Calm   3.2 km/h 96% 0.0 mm 44 W/m2
10:15 -1.4 °C -2 °C 1033.5 hPa Calm   6.4 km/h 96% 0.0 mm 47 W/m2
10:20 -1.4 °C -2 °C 1033.5 hPa WNW 1.4 km/h 4.8 km/h 96% 0.0 mm 35 W/m2
10:25 -1.4 °C -2 °C 1033.5 hPa Calm   3.2 km/h 96% 0.0 mm 33 W/m2
10:30 -1.4 °C -2 °C 1033.5 hPa Calm   4.8 km/h 96% 0.0 mm 46 W/m2
10:35 -1.4 °C -2 °C 1033.5 hPa North 1.4 km/h 1.6 km/h 96% 0.0 mm 53 W/m2
10:40 -1.4 °C -2 °C 1033.5 hPa NE 1.4 km/h 3.2 km/h 96% 0.0 mm 58 W/m2
10:45 -1.3 °C -1.9 °C 1033.5 hPa NE 1.4 km/h 6.4 km/h 96% 0.0 mm 58 W/m2
10:50 -1.3 °C -1.7 °C 1033.5 hPa ENE 1.4 km/h 3.2 km/h 97% 0.0 mm 67 W/m2
10:55 -1.3 °C -1.7 °C 1033.5 hPa East 1.4 km/h 6.4 km/h 97% 0.0 mm 74 W/m2
11:00 -1.2 °C -1.6 °C 1033.5 hPa NE 1.4 km/h 3.2 km/h 97% 0.0 mm 60 W/m2
11:05 -1.2 °C -1.6 °C 1033.5 hPa ESE 1.4 km/h 4.8 km/h 97% 0.0 mm 47 W/m2
11:10 -1.3 °C -1.7 °C 1033.5 hPa ENE 3.2 km/h 3.2 km/h 97% 0.0 mm 69 W/m2
11:15 -1.2 °C -1.6 °C 1033.5 hPa Calm   6.4 km/h 97% 0.0 mm 70 W/m2
11:20 -1.3 °C -1.7 °C 1033.5 hPa North 3.2 km/h 4.8 km/h 97% 0.0 mm 69 W/m2
11:25 -1.2 °C -1.6 °C 1033.5 hPa North 1.4 km/h 6.4 km/h 97% 0.0 mm 67 W/m2
11:30 -1.2 °C -1.6 °C 1033.9 hPa ENE 3.2 km/h 3.2 km/h 97% 0.0 mm 69 W/m2
11:35 -1.2 °C -1.6 °C 1033.9 hPa NW 1.4 km/h 3.2 km/h 97% 0.0 mm 67 W/m2
11:40 -1.2 °C -1.6 °C 1033.5 hPa NE 3.2 km/h 3.2 km/h 97% 0.0 mm 77 W/m2
11:45 -1.2 °C -1.6 °C 1033.5 hPa Calm   3.2 km/h 97% 0.0 mm 81 W/m2
11:51 -1.1 °C -1.5 °C 1033.5 hPa NE 1.4 km/h 3.2 km/h 97% 0.0 mm 83 W/m2
11:56 -1 °C -1.4 °C 1033.5 hPa Calm   1.6 km/h 97% 0.0 mm 107 W/m2
12:01 -1 °C -1.4 °C 1033.5 hPa Calm   1.6 km/h 97% 0.0 mm 107 W/m2
12:06 -0.9 °C -1.3 °C 1033.5 hPa Calm   3.2 km/h 97% 0.0 mm 97 W/m2
12:11 -0.8 °C -1.2 °C 1033.5 hPa Calm   3.2 km/h 97% 0.0 mm 95 W/m2
12:16 -0.8 °C -1.2 °C 1033.5 hPa Calm   3.2 km/h 97% 0.0 mm 111 W/m2
12:21 -0.8 °C -1.2 °C 1033.5 hPa Calm   3.2 km/h 97% 0.0 mm 116 W/m2
12:26 -0.7 °C -1.1 °C 1033.5 hPa Calm     97% 0.0 mm 123 W/m2
12:31 -0.6 °C -1 °C 1033.5 hPa NNE 1.4 km/h 3.2 km/h 97% 0.0 mm 95 W/m2
12:36 -0.6 °C -1 °C 1033.5 hPa Calm   1.6 km/h 97% 0.0 mm 91 W/m2
12:41 -0.6 °C -1 °C 1033.2 hPa Calm   1.6 km/h 97% 0.0 mm 148 W/m2
12:46 -0.4 °C -0.8 °C 1033.2 hPa WNW 4.7 km/h 4.8 km/h 97% 0.0 mm 100 W/m2
12:51 -0.5 °C -0.9 °C 1033.2 hPa NW 1.4 km/h 3.2 km/h 97% 0.0 mm 79 W/m2
12:56 -0.5 °C -0.9 °C 1033.2 hPa NW 3.2 km/h 3.2 km/h 97% 0.0 mm 86 W/m2
13:01 -0.4 °C -0.8 °C 1033.2 hPa Calm     97% 0.0 mm 91 W/m2
13:06 -0.4 °C -0.8 °C 1033.2 hPa NW 3.2 km/h 3.2 km/h 97% 0.0 mm 105 W/m2
13:11 -0.4 °C -0.8 °C 1033.2 hPa North 1.4 km/h 4.8 km/h 97% 0.0 mm 128 W/m2
13:16 -0.4 °C -0.8 °C 1033.2 hPa Calm   1.6 km/h 97% 0.0 mm 95 W/m2
13:21 -0.3 °C -0.7 °C 1033.2 hPa NNW 1.4 km/h 4.8 km/h 97% 0.0 mm 146 W/m2
13:26 -0.2 °C -0.6 °C 1033.2 hPa NE 1.4 km/h 3.2 km/h 97% 0.0 mm 155 W/m2
13:31 -0.1 °C -0.7 °C 1033.2 hPa NE 1.4 km/h 3.2 km/h 96% 0.0 mm 125 W/m2
13:36 -0.1 °C -0.5 °C 1033.2 hPa Calm     97% 0.0 mm 113 W/m2
13:41 0 °C -0.4 °C 1033.2 hPa Calm     97% 0.0 mm 111 W/m2
13:46 -0.1 °C -0.5 °C 1033.2 hPa Calm   3.2 km/h 97% 0.0 mm 98 W/m2
13:51 0 °C -0.6 °C 1033.2 hPa Calm   3.2 km/h 96% 0.0 mm 72 W/m2
13:56 0 °C -0.6 °C 1033.2 hPa Calm   3.2 km/h 96% 0.0 mm 67 W/m2
14:01 0.1 °C -0.5 °C 1033.2 hPa Calm     96% 0.0 mm 125 W/m2
14:06 0.1 °C -0.5 °C 1033.2 hPa Calm   3.2 km/h 96% 0.0 mm 113 W/m2
14:11 0.2 °C -0.4 °C 1033.2 hPa Calm   3.2 km/h 96% 0.0 mm 118 W/m2
14:16 0.2 °C -0.4 °C 1033.2 hPa Calm     96% 0.0 mm 90 W/m2
14:21 0.3 °C -0.3 °C 1033.2 hPa NE 1.4 km/h 3.2 km/h 96% 0.0 mm 62 W/m2
14:26 0.3 °C -0.3 °C 1032.8 hPa Calm   1.6 km/h 96% 0.0 mm 77 W/m2
14:31 0.3 °C -0.3 °C 1032.8 hPa Calm     96% 0.0 mm 86 W/m2
14:36 0.4 °C -0.2 °C 1032.8 hPa Calm     96% 0.0 mm 70 W/m2
14:41 0.4 °C -0.2 °C 1032.8 hPa Calm   3.2 km/h 96% 0.0 mm 60 W/m2
14:46 0.4 °C -0.2 °C 1032.8 hPa Calm   3.2 km/h 96% 0.0 mm 49 W/m2
14:51 0.5 °C -0.2 °C 1032.8 hPa Calm     95% 0.0 mm 39 W/m2
14:56 0.5 °C -0.2 °C 1032.8 hPa Calm   3.2 km/h 95% 0.0 mm 35 W/m2
15:01 0.4 °C -0.3 °C 1032.8 hPa Calm     95% 0.0 mm 32 W/m2
15:06 0.4 °C -0.3 °C 1032.8 hPa Calm     95% 0.0 mm 30 W/m2
15:11 0.4 °C -0.3 °C 1032.8 hPa Calm     95% 0.0 mm 30 W/m2
15:16 0.3 °C -0.4 °C 1033.2 hPa Calm     95% 0.0 mm 28 W/m2
15:21 0.3 °C -0.4 °C 1033.2 hPa Calm     95% 0.0 mm 28 W/m2
15:26 0.3 °C -0.4 °C 1032.8 hPa Calm     95% 0.0 mm 26 W/m2
15:31 0.3 °C -0.4 °C 1032.8 hPa Calm     95% 0.0 mm 25 W/m2
15:36 0.3 °C -0.4 °C 1032.8 hPa Calm     95% 0.0 mm 25 W/m2
15:41 0.2 °C -0.5 °C 1032.8 hPa Calm     95% 0.0 mm 25 W/m2
15:46 0.2 °C -0.5 °C 1032.8 hPa Calm     95% 0.0 mm 23 W/m2
15:51 0.2 °C -0.5 °C 1032.8 hPa Calm   3.2 km/h 95% 0.0 mm 23 W/m2
15:56 0.2 °C -0.5 °C 1033.2 hPa Calm     95% 0.0 mm 23 W/m2
16:01 0.2 °C -0.5 °C 1033.2 hPa Calm     95% 0.0 mm 23 W/m2
16:06 0.2 °C -0.5 °C 1033.2 hPa Calm     95% 0.0 mm 21 W/m2
16:11 0.2 °C -0.5 °C 1033.2 hPa Calm   1.6 km/h 95% 0.0 mm 19 W/m2
16:16 0.2 °C -0.5 °C 1033.2 hPa Calm   3.2 km/h 95% 0.0 mm 18 W/m2
16:21 0.2 °C -0.5 °C 1033.2 hPa East 1.4 km/h 1.6 km/h 95% 0.0 mm 16 W/m2
16:26 0.2 °C -0.5 °C 1033.2 hPa Calm     95% 0.0 mm 14 W/m2
16:31 0.2 °C -0.5 °C 1033.2 hPa Calm     95% 0.0 mm 16 W/m2
16:36 0.1 °C -0.6 °C 1033.2 hPa Calm     95% 0.0 mm 16 W/m2
16:41 0.1 °C -0.6 °C 1033.2 hPa Calm     95% 0.0 mm 11 W/m2
16:46 0.1 °C -0.6 °C 1033.5 hPa Calm     95% 0.0 mm 9 W/m2
16:51 0 °C -0.7 °C 1033.5 hPa Calm     95% 0.0 mm 5 W/m2
16:56 0 °C -0.7 °C 1033.5 hPa East 1.4 km/h 4.8 km/h 95% 0.0 mm 5 W/m2
17:01 0.1 °C -0.6 °C 1033.5 hPa Calm   1.6 km/h 95% 0.0 mm 0 W/m2
17:06 0.1 °C -0.6 °C 1033.5 hPa Calm   4.8 km/h 95% 0.0 mm 0 W/m2
17:12 0.1 °C -0.6 °C 1033.5 hPa Calm     95% 0.0 mm 0 W/m2
17:17 0.1 °C -0.6 °C 1033.5 hPa Calm   1.6 km/h 95% 0.0 mm 0 W/m2
17:22 0.1 °C -0.5 °C 1033.5 hPa Calm     96% 0.0 mm 0 W/m2
17:27 0.1 °C -0.5 °C 1033.5 hPa Calm     96% 0.0 mm 0 W/m2
17:32 0.1 °C -0.5 °C 1033.9 hPa Calm     96% 0.0 mm 0 W/m2
17:37 0.1 °C -0.5 °C 1033.9 hPa Calm     96% 0.0 mm 0 W/m2
17:42 0.1 °C -0.5 °C 1033.9 hPa Calm     96% 0.0 mm 0 W/m2
17:47 0.1 °C -0.5 °C 1033.9 hPa Calm     96% 0.0 mm 0 W/m2
17:52 0.1 °C -0.5 °C 1033.9 hPa East 1.4 km/h 3.2 km/h 96% 0.0 mm 0 W/m2
17:57 0.1 °C -0.5 °C 1033.5 hPa Calm     96% 0.0 mm 0 W/m2
18:02 0.1 °C -0.5 °C 1033.9 hPa Calm   3.2 km/h 96% 0.0 mm 0 W/m2
18:07 0 °C -0.6 °C 1033.9 hPa NE 3.2 km/h 3.2 km/h 96% 0.0 mm 0 W/m2
18:12 -0.1 °C -0.7 °C 1033.9 hPa ENE 3.2 km/h 3.2 km/h 96% 0.0 mm 0 W/m2
18:17 -0.1 °C -0.8 °C 1033.9 hPa East 1.4 km/h 3.2 km/h 95% 0.0 mm 0 W/m2
18:22 -0.2 °C -0.9 °C 1033.9 hPa ENE 3.2 km/h 4.8 km/h 95% 0.0 mm 0 W/m2
18:27 -0.2 °C -0.8 °C 1033.9 hPa East 3.2 km/h 3.2 km/h 96% 0.0 mm 0 W/m2
18:32 -0.3 °C -0.9 °C 1034.2 hPa ESE 1.4 km/h 4.8 km/h 96% 0.0 mm 0 W/m2
18:37 -0.3 °C -0.9 °C 1034.2 hPa Calm     96% 0.0 mm 0 W/m2
18:42 -0.4 °C -1 °C 1033.9 hPa Calm     96% 0.0 mm 0 W/m2
18:47 -0.4 °C -1 °C 1033.9 hPa Calm     96% 0.0 mm 0 W/m2
18:52 -0.4 °C -1 °C 1033.9 hPa ENE 3.2 km/h 4.8 km/h 96% 0.0 mm 0 W/m2
18:57 -0.4 °C -1 °C 1034.2 hPa Calm     96% 0.0 mm 0 W/m2
19:02 -0.4 °C -1 °C 1034.2 hPa Calm   4.8 km/h 96% 0.0 mm 0 W/m2
19:07 -0.5 °C -1.1 °C 1034.2 hPa NE 3.2 km/h 6.4 km/h 96% 0.0 mm 0 W/m2
19:12 -0.6 °C -1.2 °C 1034.2 hPa ENE 1.4 km/h 4.8 km/h 96% 0.0 mm 0 W/m2
19:17 -0.7 °C -1.3 °C 1034.2 hPa ENE 3.2 km/h 3.2 km/h 96% 0.0 mm 0 W/m2
19:22 -0.7 °C -1.3 °C 1034.2 hPa ESE 1.4 km/h 3.2 km/h 96% 0.0 mm 0 W/m2
19:27 -0.8 °C -1.4 °C 1034.5 hPa Calm     96% 0.0 mm 0 W/m2
19:32 -0.8 °C -1.4 °C 1034.5 hPa Calm   1.6 km/h 96% 0.0 mm 0 W/m2
19:37 -0.8 °C -1.4 °C 1034.5 hPa Calm   1.6 km/h 96% 0.0 mm 0 W/m2
19:42 -0.8 °C -1.4 °C 1034.5 hPa Calm   1.6 km/h 96% 0.0 mm 0 W/m2
19:47 -0.8 °C -1.4 °C 1034.5 hPa Calm     96% 0.0 mm 0 W/m2
19:52 -0.9 °C -1.5 °C 1034.5 hPa North 3.2 km/h 3.2 km/h 96% 0.0 mm 0 W/m2
19:57 -0.9 °C -1.5 °C 1034.5 hPa ENE 1.4 km/h 3.2 km/h 96% 0.0 mm 0 W/m2
20:02 -0.9 °C -1.5 °C 1034.5 hPa Calm   3.2 km/h 96% 0.0 mm 0 W/m2
20:07 -0.9 °C -1.5 °C 1034.5 hPa North 1.4 km/h 6.4 km/h 96% 0.0 mm 0 W/m2
20:12 -1 °C -1.6 °C 1034.5 hPa Calm     96% 0.0 mm 0 W/m2
20:17 -1 °C -1.6 °C 1034.5 hPa NNE 1.4 km/h 6.4 km/h 96% 0.0 mm 0 W/m2
20:22 -1.1 °C -1.7 °C 1034.5 hPa Calm   1.6 km/h 96% 0.0 mm 0 W/m2
20:27 -1.1 °C -1.7 °C 1034.5 hPa North 1.4 km/h 3.2 km/h 96% 0.0 mm 0 W/m2
20:32 -1.2 °C -1.8 °C 1034.5 hPa NNW 1.4 km/h 1.6 km/h 96% 0.0 mm 0 W/m2
20:37 -1.2 °C -1.8 °C 1034.5 hPa North 3.2 km/h 3.2 km/h 96% 0.0 mm 0 W/m2
20:42 -1.2 °C -1.8 °C 1034.5 hPa Calm   3.2 km/h 96% 0.0 mm 0 W/m2
20:47 -1.2 °C -1.8 °C 1034.9 hPa NW 3.2 km/h 3.2 km/h 96% 0.0 mm 0 W/m2
20:52 -1.2 °C -1.8 °C 1034.9 hPa NW 1.4 km/h 3.2 km/h 96% 0.0 mm 0 W/m2
20:57 -1.2 °C -1.8 °C 1034.9 hPa NW 1.4 km/h 4.8 km/h 96% 0.0 mm 0 W/m2
21:02 -1.2 °C -1.8 °C 1034.9 hPa NW 1.4 km/h 3.2 km/h 96% 0.0 mm 0 W/m2
21:07 -1.3 °C -1.9 °C 1034.9 hPa Calm   3.2 km/h 96% 0.0 mm 0 W/m2
21:12 -1.3 °C -1.9 °C 1034.9 hPa Calm   1.6 km/h 96% 0.0 mm 0 W/m2
21:17 -1.3 °C -1.9 °C 1034.9 hPa Calm   3.2 km/h 96% 0.0 mm 0 W/m2
21:22 -1.4 °C -2 °C 1034.9 hPa North 1.4 km/h 1.6 km/h 96% 0.0 mm 0 W/m2
21:27 -1.4 °C -2 °C 1034.9 hPa North 1.4 km/h 1.6 km/h 96% 0.0 mm 0 W/m2
21:32 -1.4 °C -2 °C 1034.9 hPa North 3.2 km/h 3.2 km/h 96% 0.0 mm 0 W/m2
21:37 -1.4 °C -2 °C 1035.2 hPa Calm   1.6 km/h 96% 0.0 mm 0 W/m2
21:42 -1.4 °C -2 °C 1035.2 hPa North 1.4 km/h 3.2 km/h 96% 0.0 mm 0 W/m2
21:47 -1.3 °C -1.9 °C 1035.2 hPa NW 1.4 km/h 3.2 km/h 96% 0.0 mm 0 W/m2
21:52 -1.3 °C -1.9 °C 1035.2 hPa WNW 3.2 km/h 3.2 km/h 96% 0.0 mm 0 W/m2
21:57 -1.3 °C -1.9 °C 1035.2 hPa Calm   1.6 km/h 96% 0.0 mm 0 W/m2
22:02 -1.3 °C -1.9 °C 1035.2 hPa Calm     96% 0.0 mm 0 W/m2
22:07 -1.3 °C -1.9 °C 1035.2 hPa Calm   1.6 km/h 96% 0.0 mm 0 W/m2
22:12 -1.4 °C -2 °C 1035.2 hPa NE 1.4 km/h 3.2 km/h 96% 0.0 mm 0 W/m2
22:17 -1.4 °C -2 °C 1035.6 hPa Calm     96% 0.0 mm 0 W/m2
22:22 -1.4 °C -2 °C 1035.6 hPa Calm     96% 0.0 mm 0 W/m2
22:27 -1.4 °C -2 °C 1035.6 hPa Calm   1.6 km/h 96% 0.0 mm 0 W/m2
22:32 -1.5 °C -2.1 °C 1035.6 hPa NNW 1.4 km/h 3.2 km/h 96% 0.0 mm 0 W/m2
22:37 -1.5 °C -2.1 °C 1035.6 hPa Calm   3.2 km/h 96% 0.0 mm 0 W/m2
22:42 -1.6 °C -2.2 °C 1035.6 hPa Calm   1.6 km/h 96% 0.0 mm 0 W/m2
22:47 -1.6 °C -2.2 °C 1035.6 hPa East 1.4 km/h 1.6 km/h 96% 0.0 mm 0 W/m2
22:52 -1.5 °C -2.1 °C 1035.6 hPa Calm   1.6 km/h 96% 0.0 mm 0 W/m2
22:57 -1.6 °C -2.2 °C 1035.6 hPa ENE 1.4 km/h 1.6 km/h 96% 0.0 mm 0 W/m2
23:02 -1.6 °C -2.2 °C 1035.6 hPa ENE 1.4 km/h 1.6 km/h 96% 0.0 mm 0 W/m2
23:07 -1.6 °C -2.2 °C 1035.6 hPa North 1.4 km/h 3.2 km/h 96% 0.0 mm 0 W/m2
23:12 -1.6 °C -2.2 °C 1035.9 hPa North 1.4 km/h 3.2 km/h 96% 0.0 mm 0 W/m2
23:18 -1.6 °C -2 °C 1035.6 hPa Calm   4.8 km/h 97% 0.0 mm 0 W/m2
23:23 -1.7 °C -2.3 °C 1035.9 hPa NW 3.2 km/h 3.2 km/h 96% 0.0 mm 0 W/m2
23:28 -1.8 °C -2.4 °C 1035.9 hPa WNW 1.4 km/h 4.8 km/h 96% 0.0 mm 0 W/m2
23:33 -1.8 °C -2.4 °C 1035.9 hPa West 1.4 km/h 3.2 km/h 96% 0.0 mm 0 W/m2
23:38 -1.9 °C -2.5 °C 1035.9 hPa West 3.2 km/h 3.2 km/h 96% 0.0 mm 0 W/m2
23:43 -1.9 °C -2.5 °C 1035.9 hPa WNW 1.4 km/h 1.6 km/h 96% 0.0 mm 0 W/m2
23:48 -1.9 °C -2.5 °C 1035.9 hPa Calm   1.6 km/h 96% 0.0 mm 0 W/m2
23:53 -1.9 °C -2.3 °C 1035.9 hPa NW 3.2 km/h 4.8 km/h 97% 0.0 mm 0 W/m2
23:58 -1.9 °C -2.5 °C 1035.9 hPa Calm     96% 0.0 mm 0 W/m2
Juneau County Weather
Compliments of Weather Underground - 4 mb